createdAt,value
2023-04-16T00:04:38.092Z,7.43
2023-04-16T00:09:37.075Z,7.55
2023-04-16T00:14:36.489Z,7.40
2023-04-16T00:19:35.757Z,7.67
2023-04-16T00:24:34.935Z,7.55
2023-04-16T00:29:35.057Z,7.39
2023-04-16T00:34:34.037Z,7.55
2023-04-16T00:39:33.411Z,7.19
2023-04-16T00:44:35.076Z,7.21
2023-04-16T00:49:34.827Z,7.08
2023-04-16T00:54:33.945Z,6.80
2023-04-16T00:59:33.124Z,6.66
2023-04-16T01:04:36.014Z,6.67
2023-04-16T01:09:35.030Z,6.73
2023-04-16T01:14:36.689Z,6.58
2023-04-16T01:19:38.688Z,6.47
2023-04-16T01:24:38.400Z,6.37
2023-04-16T01:29:37.531Z,6.21
2023-04-16T01:34:36.569Z,6.19
2023-04-16T01:39:35.580Z,5.86
2023-04-16T01:44:34.564Z,6.09
2023-04-16T01:49:34.358Z,5.80
2023-04-16T01:54:33.244Z,5.96
2023-04-16T01:59:32.264Z,5.59
2023-04-16T02:04:32.701Z,5.47
2023-04-16T02:09:34.363Z,5.28
2023-04-16T02:14:35.234Z,5.15
2023-04-16T02:19:34.021Z,5.11
2023-04-16T02:24:33.185Z,5.19
2023-04-16T02:29:36.776Z,4.91
2023-04-16T02:34:43.571Z,4.88
2023-04-16T02:39:44.181Z,4.88
2023-04-16T02:44:43.004Z,5.02
2023-04-16T02:49:42.156Z,5.22
2023-04-16T02:54:41.087Z,5.00
2023-04-16T02:59:40.169Z,4.93
2023-04-16T03:04:39.293Z,5.26
2023-04-16T03:09:38.757Z,4.99
2023-04-16T03:14:37.566Z,5.29
2023-04-16T03:19:36.514Z,5.17
2023-04-16T03:24:35.647Z,5.35
2023-04-16T03:29:37.911Z,5.33
2023-04-16T03:34:38.690Z,5.24
2023-04-16T03:39:37.874Z,5.19
2023-04-16T03:44:37.129Z,5.05
2023-04-16T03:49:36.003Z,4.70
2023-04-16T03:54:34.808Z,4.92
2023-04-16T03:59:45.765Z,4.39
2023-04-16T04:04:44.971Z,4.39
2023-04-16T04:09:44.082Z,4.54
2023-04-16T04:14:43.034Z,4.71
2023-04-16T04:19:47.085Z,4.68
2023-04-16T04:24:46.403Z,4.43
2023-04-16T04:29:45.722Z,4.09
2023-04-16T04:34:44.648Z,4.43
2023-04-16T04:39:43.993Z,4.30
2023-04-16T04:44:45.251Z,4.32
2023-04-16T04:49:44.497Z,4.42
2023-04-16T04:54:43.258Z,4.84
2023-04-16T04:59:42.128Z,4.52
2023-04-16T05:04:42.741Z,5.20
2023-04-16T05:09:41.622Z,5.07
2023-04-16T05:14:40.548Z,5.26
2023-04-16T05:19:39.328Z,5.26
2023-04-16T05:24:38.164Z,5.59
2023-04-16T05:29:37.047Z,5.67
2023-04-16T05:34:35.972Z,5.58
2023-04-16T05:39:34.682Z,5.82
2023-04-16T05:44:33.816Z,5.99
2023-04-16T05:49:32.640Z,6.29
2023-04-16T05:54:31.505Z,6.53
2023-04-16T05:59:30.980Z,6.63
2023-04-16T06:04:31.031Z,6.73
2023-04-16T06:09:30.531Z,7.28
2023-04-16T06:14:29.311Z,7.18
2023-04-16T06:19:28.031Z,7.35
2023-04-16T06:24:27.045Z,7.43
2023-04-16T06:29:33.654Z,7.79
2023-04-16T06:34:39.534Z,8.24
2023-04-16T06:39:38.329Z,8.32
2023-04-16T06:44:37.221Z,8.73
2023-04-16T06:49:36.237Z,8.77
2023-04-16T06:54:35.345Z,9.00
2023-04-16T06:59:34.176Z,8.88
2023-04-16T07:04:33.039Z,9.35
2023-04-16T07:09:31.793Z,9.63
2023-04-16T07:14:30.597Z,9.65
2023-04-16T07:19:32.558Z,10.13
2023-04-16T07:24:31.348Z,10.17
2023-04-16T07:29:30.327Z,10.63
2023-04-16T07:34:29.100Z,11.01
2023-04-16T07:39:28.513Z,10.93
2023-04-16T07:44:28.183Z,11.26
2023-04-16T07:49:27.592Z,10.86
2023-04-16T07:54:28.842Z,11.11
2023-04-16T07:59:28.219Z,11.51
2023-04-16T08:04:29.949Z,13.43
2023-04-16T08:09:29.362Z,14.40
2023-04-16T08:14:28.484Z,15.45
2023-04-16T08:19:27.290Z,15.92
2023-04-16T08:24:26.412Z,15.02
2023-04-16T08:29:31.944Z,14.11
2023-04-16T08:34:31.247Z,12.21
2023-04-16T08:39:30.341Z,12.07
2023-04-16T08:44:33.861Z,12.27
2023-04-16T08:49:36.138Z,12.48
2023-04-16T08:54:44.644Z,13.30
2023-04-16T08:59:47.914Z,13.91
2023-04-16T09:04:48.628Z,14.07
2023-04-16T09:09:51.078Z,14.26
2023-04-16T09:14:50.991Z,14.43
2023-04-16T09:19:49.837Z,15.01
2023-04-16T09:24:49.008Z,13.94
2023-04-16T09:29:47.873Z,14.10
2023-04-16T09:34:59.834Z,15.08
2023-04-16T09:40:01.378Z,15.15
2023-04-16T09:45:02.017Z,15.86
2023-04-16T09:50:02.351Z,15.85
2023-04-16T09:55:01.180Z,15.92
2023-04-16T10:00:06.077Z,15.72
2023-04-16T10:05:05.139Z,14.33
2023-04-16T10:10:05.457Z,14.39
2023-04-16T10:15:05.039Z,15.10
2023-04-16T10:20:04.227Z,15.28
2023-04-16T10:25:04.194Z,15.56
2023-04-16T10:30:04.425Z,15.06
2023-04-16T10:35:03.408Z,14.46
2023-04-16T10:40:22.562Z,14.94
2023-04-16T10:45:27.627Z,15.38
2023-04-16T10:50:37.997Z,15.24
2023-04-16T10:55:39.212Z,14.57
2023-04-16T11:00:51.193Z,15.23
2023-04-16T11:05:50.065Z,15.82
2023-04-16T11:10:49.297Z,14.75
2023-04-16T11:15:48.693Z,15.19
2023-04-16T11:20:47.497Z,15.08
2023-04-16T11:25:46.593Z,14.00
2023-04-16T11:30:46.219Z,14.39
2023-04-16T11:35:46.095Z,14.84
2023-04-16T11:40:44.992Z,15.69
2023-04-16T11:46:02.657Z,16.01
2023-04-16T11:51:04.289Z,14.99
2023-04-16T11:56:04.784Z,15.64
2023-04-16T12:01:04.386Z,16.30
2023-04-16T12:06:08.642Z,15.96
2023-04-16T12:11:07.807Z,15.77
2023-04-16T12:16:18.458Z,15.73
2023-04-16T12:21:17.396Z,15.43
2023-04-16T12:26:18.211Z,15.37
2023-04-16T12:31:17.014Z,16.18
2023-04-16T12:36:19.790Z,16.38
2023-04-16T12:41:18.657Z,16.34
2023-04-16T12:46:17.474Z,16.27
2023-04-16T12:51:16.265Z,16.72
2023-04-16T12:56:15.712Z,15.96
2023-04-16T13:01:14.518Z,16.39
2023-04-16T13:06:15.095Z,16.55
2023-04-16T13:11:14.119Z,16.14
2023-04-16T13:16:13.105Z,16.18
2023-04-16T13:21:12.196Z,16.04
2023-04-16T13:26:13.102Z,16.05
2023-04-16T13:31:12.069Z,16.23
2023-04-16T13:36:11.321Z,16.17
2023-04-16T13:41:10.097Z,16.88
2023-04-16T13:46:08.902Z,17.03
2023-04-16T13:51:08.409Z,16.26
2023-04-16T13:56:07.377Z,15.95
2023-04-16T14:01:06.532Z,16.48
2023-04-16T14:06:05.641Z,16.65
2023-04-16T14:11:06.414Z,16.67
2023-04-16T14:16:05.770Z,16.30
2023-04-16T14:21:05.090Z,15.79
2023-04-16T14:26:04.032Z,15.80
2023-04-16T14:31:02.984Z,15.91
2023-04-16T14:36:03.361Z,15.85
2023-04-16T14:41:02.482Z,15.58
2023-04-16T14:46:01.337Z,15.78
2023-04-16T14:51:00.109Z,15.26
2023-04-16T14:55:59.410Z,15.37
2023-04-16T15:01:01.369Z,15.38
2023-04-16T15:06:00.440Z,15.09
2023-04-16T15:10:59.352Z,14.74
2023-04-16T15:15:58.321Z,14.46
2023-04-16T15:20:57.200Z,14.53
2023-04-16T15:25:56.023Z,14.23
2023-04-16T15:30:56.477Z,14.34
2023-04-16T15:35:55.333Z,14.40
2023-04-16T15:40:54.123Z,14.40
2023-04-16T15:45:52.944Z,13.73
2023-04-16T15:50:52.896Z,13.48
2023-04-16T15:55:53.654Z,13.40
2023-04-16T16:00:52.644Z,13.38
2023-04-16T16:05:51.492Z,13.25
2023-04-16T16:10:50.267Z,13.28
2023-04-16T16:15:50.730Z,13.38
2023-04-16T16:20:49.808Z,13.30
2023-04-16T16:25:48.627Z,13.16
2023-04-16T16:30:47.608Z,13.25
2023-04-16T16:35:46.456Z,13.18
2023-04-16T16:40:45.337Z,13.11
2023-04-16T16:45:44.220Z,13.26
2023-04-16T16:50:43.183Z,13.35
2023-04-16T16:55:42.250Z,13.17
2023-04-16T17:00:41.264Z,13.14
2023-04-16T17:05:40.612Z,12.71
2023-04-16T17:10:39.441Z,12.64
2023-04-16T17:15:38.222Z,12.63
2023-04-16T17:20:37.103Z,12.60
2023-04-16T17:25:36.579Z,12.60
2023-04-16T17:30:35.501Z,12.39
2023-04-16T17:35:34.379Z,12.29
2023-04-16T17:40:33.212Z,12.09
2023-04-16T17:45:33.420Z,12.02
2023-04-16T17:50:32.328Z,12.22
2023-04-16T17:55:31.456Z,12.16
2023-04-16T18:00:31.294Z,12.09
2023-04-16T18:05:30.949Z,12.07
2023-04-16T18:10:31.597Z,11.95
2023-04-16T18:15:30.854Z,12.03
2023-04-16T18:20:29.809Z,11.79
2023-04-16T18:25:34.538Z,11.87
2023-04-16T18:30:34.735Z,11.90
2023-04-16T18:35:33.666Z,11.75
2023-04-16T18:40:37.239Z,11.41
2023-04-16T18:45:36.223Z,11.35
2023-04-16T18:50:35.445Z,11.42
2023-04-16T18:55:34.235Z,10.94
2023-04-16T19:00:33.021Z,10.65
2023-04-16T19:05:32.171Z,10.76
2023-04-16T19:10:31.231Z,10.96
2023-04-16T19:15:32.047Z,11.07
2023-04-16T19:20:36.291Z,11.19
2023-04-16T19:25:36.591Z,11.28
2023-04-16T19:30:35.373Z,11.42
2023-04-16T19:35:34.680Z,11.42
2023-04-16T19:40:33.609Z,11.42
2023-04-16T19:45:32.463Z,11.45
2023-04-16T19:50:31.264Z,11.59
2023-04-16T19:55:30.018Z,11.66
2023-04-16T20:00:28.771Z,11.54
2023-04-16T20:05:29.498Z,11.58
2023-04-16T20:10:28.285Z,11.59
2023-04-16T20:15:27.303Z,11.74
2023-04-16T20:20:26.230Z,11.77
2023-04-16T20:25:26.262Z,11.45
2023-04-16T20:30:29.292Z,11.36
2023-04-16T20:35:27.915Z,11.66
2023-04-16T20:40:30.365Z,11.58
2023-04-16T20:45:32.333Z,11.64
2023-04-16T20:50:31.196Z,11.59
2023-04-16T20:55:29.952Z,11.56
2023-04-16T21:00:28.688Z,11.52
2023-04-16T21:05:29.968Z,11.47
2023-04-16T21:10:28.799Z,11.49
2023-04-16T21:15:27.562Z,11.18
2023-04-16T21:20:27.340Z,11.40
2023-04-16T21:25:27.323Z,11.33
2023-04-16T21:30:26.122Z,11.24
2023-04-16T21:35:24.882Z,11.26
2023-04-16T21:40:23.654Z,11.08
2023-04-16T21:45:22.901Z,11.13
2023-04-16T21:50:21.711Z,11.07
2023-04-16T21:55:20.940Z,11.17
2023-04-16T22:00:21.169Z,11.06
2023-04-16T22:05:20.216Z,11.16
2023-04-16T22:10:19.099Z,10.99
2023-04-16T22:15:17.823Z,10.63
2023-04-16T22:20:17.141Z,10.55
2023-04-16T22:25:16.330Z,10.32
2023-04-16T22:30:15.236Z,10.22
2023-04-16T22:35:14.229Z,10.82
2023-04-16T22:40:13.241Z,10.82
2023-04-16T22:45:12.771Z,10.92
2023-04-16T22:50:12.226Z,10.87
2023-04-16T22:55:11.101Z,10.93
2023-04-16T23:00:15.862Z,10.96
2023-04-16T23:05:15.107Z,10.87
2023-04-16T23:10:14.037Z,10.73
2023-04-16T23:15:12.974Z,10.65
2023-04-16T23:20:13.263Z,10.75
2023-04-16T23:25:12.190Z,10.71
2023-04-16T23:30:11.488Z,10.69
2023-04-16T23:35:10.518Z,10.69
2023-04-16T23:40:10.056Z,10.83
2023-04-16T23:45:09.459Z,10.48
2023-04-16T23:50:09.370Z,10.65
2023-04-16T23:55:08.642Z,10.41
